Time;durP1;ratioP1;P1;durP2;ratioP2;P2;SDS_P1;SDS_P2;PMS_P1;PMS_P2;Temp;Humidity;BMP_temperature;BMP_pressure;BME280_temperature;BME280_humidity;BME280_pressure;Samples;Min_cycle;Max_cycle;Signal;HPM_P1;HPM_P2
2022/12/16 00:01:07;;;;;;;79.18;41.78;;;-4.50;93.20;;;;;;5090296;28;20823;-59
2022/12/16 00:03:34;;;;;;;78.18;41.40;;;-4.40;94.80;;;;;;5090700;28;20770;-58
2022/12/16 00:06:02;;;;;;;79.47;39.33;;;-4.40;97.80;;;;;;5090290;28;20882;-59
2022/12/16 00:08:29;;;;;;;72.20;38.72;;;-4.40;99.90;;;;;;5090528;28;20505;-59
2022/12/16 00:10:58;;;;;;;76.28;38.25;;;-4.40;99.90;;;;;;5090847;28;20493;-59
2022/12/16 00:13:24;;;;;;;67.95;37.38;;;-4.40;99.90;;;;;;5090737;28;20467;-59
2022/12/16 00:15:52;;;;;;;72.72;36.45;;;-4.30;99.90;;;;;;5090394;28;20885;-59
2022/12/16 00:18:19;;;;;;;76.97;39.00;;;-4.50;99.90;;;;;;5090534;28;20410;-59
2022/12/16 00:20:47;;;;;;;79.95;39.75;;;-4.60;99.90;;;;;;5090314;28;20940;-59
2022/12/16 00:23:13;;;;;;;69.22;38.28;;;-4.60;99.90;;;;;;5090552;28;20954;-59
2022/12/16 00:25:42;;;;;;;68.47;36.00;;;-4.40;99.90;;;;;;5090571;28;20417;-59
2022/12/16 00:28:08;;;;;;;66.57;36.22;;;-4.30;99.90;;;;;;5090154;28;20442;-60
2022/12/16 00:30:35;;;;;;;65.60;35.20;;;-4.20;99.90;;;;;;5090129;28;20410;-59
2022/12/16 00:33:03;;;;;;;59.25;34.03;;;-4.00;99.90;;;;;;5090614;28;20405;-58
2022/12/16 00:35:30;;;;;;;58.22;33.08;;;-3.90;99.90;;;;;;5090548;28;20789;-59
2022/12/16 00:37:57;;;;;;;56.35;32.05;;;-3.80;99.90;;;;;;5089849;28;20463;-58
2022/12/16 00:40:24;;;;;;;58.58;32.63;;;-3.80;99.90;;;;;;5090188;28;20422;-59
2022/12/16 00:42:51;;;;;;;61.30;33.85;;;-3.90;99.90;;;;;;5090177;28;20409;-59
2022/12/16 00:45:17;;;;;;;60.40;33.25;;;-3.80;99.90;;;;;;5090150;28;20788;-59
2022/12/16 00:47:44;;;;;;;60.05;33.15;;;-3.90;99.90;;;;;;5089874;28;20467;-57
2022/12/16 00:50:12;;;;;;;61.38;33.90;;;-3.90;99.90;;;;;;5090376;28;20463;-59
2022/12/16 00:52:39;;;;;;;58.30;32.72;;;-3.80;99.90;;;;;;5089997;28;20493;-59
2022/12/16 00:55:06;;;;;;;58.03;32.17;;;-3.80;99.90;;;;;;5090556;28;20483;-60
2022/12/16 00:57:33;;;;;;;60.10;32.50;;;-3.70;99.90;;;;;;5089764;28;20504;-59
2022/12/16 00:59:59;;;;;;;56.42;32.08;;;-3.60;99.90;;;;;;5089973;28;20460;-58
2022/12/16 01:02:26;;;;;;;56.38;30.67;;;-3.60;99.90;;;;;;5090141;28;20428;-59
2022/12/16 01:04:53;;;;;;;54.60;30.55;;;-3.60;99.90;;;;;;5089456;28;20417;-60
2022/12/16 01:07:21;;;;;;;55.33;30.58;;;-3.60;99.90;;;;;;5089717;28;20948;-58
2022/12/16 01:09:48;;;;;;;55.85;31.30;;;-3.60;99.90;;;;;;5090124;28;20414;-58
2022/12/16 01:12:14;;;;;;;51.10;30.08;;;-3.60;99.90;;;;;;5090050;28;20420;-59
2022/12/16 01:14:41;;;;;;;52.70;29.75;;;-3.60;99.90;;;;;;5089823;28;20884;-60
2022/12/16 01:17:08;;;;;;;55.50;31.15;;;-3.60;99.90;;;;;;5090023;28;20467;-59
2022/12/16 01:19:34;;;;;;;58.50;30.35;;;-3.60;99.90;;;;;;5090115;28;20417;-59
2022/12/16 01:22:01;;;;;;;57.70;31.65;;;-3.60;99.90;;;;;;5090058;28;20429;-59
2022/12/16 01:24:29;;;;;;;66.23;34.10;;;-3.60;99.90;;;;;;5090246;28;20464;-57
2022/12/16 01:26:56;;;;;;;67.32;34.00;;;-3.70;99.90;;;;;;5093353;28;20410;-59
2022/12/16 01:29:22;;;;;;;66.15;33.90;;;-3.70;99.90;;;;;;5093771;28;20456;-59
2022/12/16 01:31:50;;;;;;;57.92;32.15;;;-3.60;99.90;;;;;;5093655;28;20417;-59
2022/12/16 01:34:17;;;;;;;58.55;32.22;;;-3.50;99.90;;;;;;5093541;28;20422;-58
2022/12/16 01:36:43;;;;;;;62.00;31.05;;;-3.50;99.90;;;;;;5093064;28;20413;-59
2022/12/16 01:39:10;;;;;;;59.00;32.00;;;-3.40;99.90;;;;;;5092708;28;20849;-59
2022/12/16 01:41:38;;;;;;;59.90;31.90;;;-3.40;99.90;;;;;;5093168;28;20422;-59
2022/12/16 01:44:16;;;;;;;58.72;31.73;;;-3.40;99.90;;;;;;5093667;28;20483;-59
2022/12/16 01:46:45;;;;;;;56.85;30.75;;;-3.40;99.90;;;;;;5093076;28;20414;-58
2022/12/16 01:49:21;;;;;;;51.92;28.92;;;-3.30;99.90;;;;;;5093189;28;20823;-59
2022/12/16 01:51:48;;;;;;;51.35;28.42;;;-3.30;99.90;;;;;;5093253;28;20436;-59
2022/12/16 01:54:19;;;;;;;47.17;26.70;;;-3.20;99.90;;;;;;5093069;28;20435;-59
2022/12/16 01:56:51;;;;;;;47.17;26.45;;;-3.10;99.90;;;;;;5093104;28;20827;-59
2022/12/16 01:59:19;;;;;;;45.75;26.25;;;-3.00;99.90;;;;;;5093345;28;20501;-59
2022/12/16 02:01:46;;;;;;;41.85;24.80;;;-2.90;99.90;;;;;;5093460;28;20422;-55
2022/12/16 02:04:13;;;;;;;42.28;24.70;;;-2.90;99.90;;;;;;5093710;28;20409;-59
2022/12/16 02:06:39;;;;;;;41.42;24.20;;;-2.90;99.90;;;;;;5093345;28;20418;-59
2022/12/16 02:09:10;;;;;;;41.85;24.02;;;-2.90;99.90;;;;;;5092880;28;20795;-58
2022/12/16 02:12:02;;;;;;;40.17;23.55;;;-2.80;99.90;;;;;;5093013;28;20414;-59
2022/12/16 02:14:49;;;;;;;39.72;23.17;;;-2.80;99.90;;;;;;5092731;28;20785;-59
2022/12/16 02:17:23;;;;;;;40.70;23.45;;;-2.80;99.90;;;;;;5092596;28;20489;-57
2022/12/16 02:20:15;;;;;;;44.13;24.90;;;-2.90;99.90;;;;;;5093253;28;20417;-58
2022/12/16 02:22:56;;;;;;;43.95;24.88;;;-2.90;99.90;;;;;;5093118;28;20512;-57
2022/12/16 02:25:53;;;;;;;44.30;25.38;;;-3.00;99.90;;;;;;5092854;28;20412;-59
2022/12/16 02:28:45;;;;;;;45.88;25.08;;;-3.00;99.90;;;;;;5091687;28;20835;-58
2022/12/16 02:31:23;;;;;;;44.55;24.13;;;-3.00;99.90;;;;;;5092255;28;20801;-57
2022/12/16 02:34:00;;;;;;;41.88;24.17;;;-3.10;99.90;;;;;;5092664;28;20759;-59
2022/12/16 02:36:40;;;;;;;39.33;23.38;;;-3.10;99.90;;;;;;5091002;28;20417;-58
2022/12/16 02:39:14;;;;;;;41.03;24.13;;;-3.10;99.90;;;;;;5092192;28;20464;-59
2022/12/16 02:41:47;;;;;;;40.65;23.50;;;-3.10;99.90;;;;;;5091999;28;20422;-59
2022/12/16 02:44:16;;;;;;;42.37;23.37;;;-3.10;99.90;;;;;;5092506;28;20472;-59
2022/12/16 02:46:52;;;;;;;38.53;22.63;;;-3.00;99.90;;;;;;5091837;28;20413;-59
2022/12/16 02:49:48;;;;;;;41.88;23.88;;;-3.00;99.20;;;;;;5092341;28;20441;-58
2022/12/16 02:52:17;;;;;;;41.97;22.52;;;-3.00;99.40;;;;;;5091833;28;20406;-57
2022/12/16 02:54:44;;;;;;;39.70;22.75;;;-3.00;99.40;;;;;;5092029;28;20880;-59
2022/12/16 02:57:23;;;;;;;37.63;22.60;;;-3.00;99.80;;;;;;5091975;28;20409;-59
2022/12/16 02:59:58;;;;;;;37.87;21.43;;;-3.00;99.90;;;;;;5092084;28;20504;-59
2022/12/16 03:02:36;;;;;;;42.00;21.92;;;-3.10;99.90;;;;;;5091683;28;20770;-59
2022/12/16 03:05:07;;;;;;;37.27;21.70;;;-3.00;99.90;;;;;;5091962;28;20976;-60
2022/12/16 03:07:37;;;;;;;36.30;21.35;;;-3.00;99.90;;;;;;5091459;28;20414;-59
2022/12/16 03:10:06;;;;;;;35.75;21.63;;;-3.00;99.90;;;;;;5091560;28;20413;-58
2022/12/16 03:12:35;;;;;;;39.53;21.40;;;-2.90;99.90;;;;;;5091094;28;20413;-59
2022/12/16 03:15:03;;;;;;;39.00;21.65;;;-3.00;99.90;;;;;;5091429;28;20418;-59
2022/12/16 03:17:32;;;;;;;37.33;21.38;;;-3.00;99.90;;;;;;5090963;28;20414;-60
2022/12/16 03:20:07;;;;;;;36.47;21.60;;;-3.00;99.90;;;;;;5091909;28;20475;-60
2022/12/16 03:22:36;;;;;;;37.30;21.73;;;-3.00;99.90;;;;;;5091409;28;20421;-59
2022/12/16 03:25:04;;;;;;;40.45;22.00;;;-3.00;99.90;;;;;;5091411;28;20418;-57
2022/12/16 03:27:39;;;;;;;40.28;21.58;;;-3.10;99.90;;;;;;5091281;28;20454;-59
2022/12/16 03:30:09;;;;;;;34.05;20.83;;;-3.20;99.90;;;;;;5091359;28;20410;-59
2022/12/16 03:32:41;;;;;;;37.78;20.30;;;-3.10;99.90;;;;;;5091522;28;20417;-58
2022/12/16 03:35:14;;;;;;;30.73;19.02;;;-3.10;99.90;;;;;;5091426;28;20463;-59
2022/12/16 03:37:43;;;;;;;29.88;18.85;;;-3.00;98.10;;;;;;5091054;28;20410;-58
2022/12/16 03:40:11;;;;;;;32.05;19.80;;;-3.10;96.50;;;;;;5090960;28;20417;-58
2022/12/16 03:42:39;;;;;;;30.67;19.00;;;-3.10;94.90;;;;;;5091318;28;20426;-59
2022/12/16 03:45:08;;;;;;;35.13;19.53;;;-3.10;92.30;;;;;;5091024;28;20948;-59
2022/12/16 03:47:37;;;;;;;32.97;19.65;;;-3.10;91.00;;;;;;5090684;28;20406;-60
2022/12/16 03:50:05;;;;;;;32.13;19.20;;;-3.20;89.50;;;;;;5090954;28;20414;-57
2022/12/16 03:52:31;;;;;;;29.20;18.55;;;-3.20;88.80;;;;;;5090978;28;20398;-59
2022/12/16 03:54:58;;;;;;;30.73;18.98;;;-3.20;89.60;;;;;;5090846;28;20418;-58
2022/12/16 03:57:25;;;;;;;39.60;21.08;;;-3.30;88.70;;;;;;5090650;28;20819;-59
2022/12/16 03:59:51;;;;;;;36.75;21.48;;;-3.30;91.10;;;;;;5090880;28;20487;-59
2022/12/16 04:02:18;;;;;;;35.83;19.75;;;-3.40;92.10;;;;;;5090903;28;20823;-59
2022/12/16 04:04:46;;;;;;;30.80;18.92;;;-3.40;93.00;;;;;;5090998;28;20418;-59
2022/12/16 04:07:23;;;;;;;31.17;18.30;;;-3.30;92.50;;;;;;5090127;28;20422;-59
2022/12/16 04:09:50;;;;;;;31.27;18.77;;;-3.30;91.20;;;;;;5090715;28;20406;-59
2022/12/16 04:26:17;;;;;;;27.60;16.42;;;-3.20;71.50;;;;;;5090157;28;20459;-59
2022/12/16 04:28:44;;;;;;;26.40;15.75;;;-3.20;66.80;;;;;;5091005;28;20417;-59
2022/12/16 04:31:11;;;;;;;27.15;15.70;;;-3.30;64.30;;;;;;5090749;28;20405;-58
